sensor_id;sensor_type;location;lat;lon;timestamp;P1;durP1;ratioP1;P2;durP2;ratioP2
20743;SDS011;56303;52.160;-0.428;2023-02-22T00:00:29;25.17;;;22.23;;
20743;SDS011;56303;52.160;-0.428;2023-02-22T00:03:12;25.27;;;22.00;;
20743;SDS011;56303;52.160;-0.428;2023-02-22T00:05:42;23.27;;;20.77;;
20743;SDS011;56303;52.160;-0.428;2023-02-22T00:08:13;24.30;;;21.17;;
20743;SDS011;56303;52.160;-0.428;2023-02-22T00:10:40;24.10;;;21.00;;
20743;SDS011;56303;52.160;-0.428;2023-02-22T00:13:08;22.67;;;20.23;;
20743;SDS011;56303;52.160;-0.428;2023-02-22T00:15:36;23.23;;;20.73;;
20743;SDS011;56303;52.160;-0.428;2023-02-22T00:18:03;24.00;;;21.40;;
20743;SDS011;56303;52.160;-0.428;2023-02-22T00:20:30;24.57;;;21.93;;
20743;SDS011;56303;52.160;-0.428;2023-02-22T00:22:57;24.53;;;21.77;;
20743;SDS011;56303;52.160;-0.428;2023-02-22T00:25:26;23.93;;;21.30;;
20743;SDS011;56303;52.160;-0.428;2023-02-22T00:27:54;23.50;;;21.13;;
20743;SDS011;56303;52.160;-0.428;2023-02-22T00:30:22;24.27;;;21.60;;
20743;SDS011;56303;52.160;-0.428;2023-02-22T00:32:53;23.97;;;21.47;;
20743;SDS011;56303;52.160;-0.428;2023-02-22T00:35:22;23.60;;;21.10;;
20743;SDS011;56303;52.160;-0.428;2023-02-22T00:37:52;24.10;;;21.67;;
20743;SDS011;56303;52.160;-0.428;2023-02-22T00:40:22;24.97;;;22.27;;
20743;SDS011;56303;52.160;-0.428;2023-02-22T00:42:51;23.43;;;20.97;;
20743;SDS011;56303;52.160;-0.428;2023-02-22T00:45:19;25.77;;;22.33;;
20743;SDS011;56303;52.160;-0.428;2023-02-22T00:47:48;25.43;;;21.83;;
20743;SDS011;56303;52.160;-0.428;2023-02-22T00:50:16;25.50;;;22.87;;
20743;SDS011;56303;52.160;-0.428;2023-02-22T00:52:44;26.13;;;23.33;;
20743;SDS011;56303;52.160;-0.428;2023-02-22T00:55:15;26.40;;;23.50;;
20743;SDS011;56303;52.160;-0.428;2023-02-22T00:57:44;27.00;;;24.07;;
20743;SDS011;56303;52.160;-0.428;2023-02-22T01:00:16;27.93;;;24.73;;
20743;SDS011;56303;52.160;-0.428;2023-02-22T01:02:46;31.60;;;26.07;;
20743;SDS011;56303;52.160;-0.428;2023-02-22T01:05:17;27.97;;;24.67;;
20743;SDS011;56303;52.160;-0.428;2023-02-22T01:07:47;26.90;;;23.93;;
20743;SDS011;56303;52.160;-0.428;2023-02-22T01:10:15;25.80;;;22.63;;
20743;SDS011;56303;52.160;-0.428;2023-02-22T01:12:45;27.50;;;24.50;;
20743;SDS011;56303;52.160;-0.428;2023-02-22T01:15:12;28.43;;;25.30;;
20743;SDS011;56303;52.160;-0.428;2023-02-22T01:17:40;29.10;;;25.93;;
20743;SDS011;56303;52.160;-0.428;2023-02-22T01:20:09;30.03;;;26.00;;
20743;SDS011;56303;52.160;-0.428;2023-02-22T01:22:41;29.87;;;26.30;;
20743;SDS011;56303;52.160;-0.428;2023-02-22T01:25:14;31.13;;;26.70;;
20743;SDS011;56303;52.160;-0.428;2023-02-22T01:27:43;34.00;;;30.20;;
20743;SDS011;56303;52.160;-0.428;2023-02-22T01:30:11;34.60;;;29.60;;
20743;SDS011;56303;52.160;-0.428;2023-02-22T01:32:39;35.93;;;29.70;;
20743;SDS011;56303;52.160;-0.428;2023-02-22T01:35:12;36.13;;;30.60;;
20743;SDS011;56303;52.160;-0.428;2023-02-22T01:37:41;37.47;;;30.37;;
20743;SDS011;56303;52.160;-0.428;2023-02-22T01:40:09;39.03;;;32.23;;
20743;SDS011;56303;52.160;-0.428;2023-02-22T01:42:42;39.30;;;32.83;;
20743;SDS011;56303;52.160;-0.428;2023-02-22T01:48:02;39.67;;;32.87;;
20743;SDS011;56303;52.160;-0.428;2023-02-22T01:50:37;46.53;;;37.27;;
20743;SDS011;56303;52.160;-0.428;2023-02-22T01:53:08;43.83;;;36.37;;
20743;SDS011;56303;52.160;-0.428;2023-02-22T01:55:36;46.40;;;39.17;;
20743;SDS011;56303;52.160;-0.428;2023-02-22T01:58:04;50.40;;;38.97;;
20743;SDS011;56303;52.160;-0.428;2023-02-22T02:00:33;44.27;;;38.43;;
20743;SDS011;56303;52.160;-0.428;2023-02-22T02:03:03;46.00;;;36.80;;
20743;SDS011;56303;52.160;-0.428;2023-02-22T02:05:36;46.17;;;38.00;;
20743;SDS011;56303;52.160;-0.428;2023-02-22T02:08:10;44.23;;;38.40;;
20743;SDS011;56303;52.160;-0.428;2023-02-22T02:10:53;45.40;;;38.53;;
20743;SDS011;56303;52.160;-0.428;2023-02-22T02:13:23;51.57;;;40.43;;
20743;SDS011;56303;52.160;-0.428;2023-02-22T02:15:54;51.50;;;40.30;;
20743;SDS011;56303;52.160;-0.428;2023-02-22T02:18:22;44.57;;;36.40;;
20743;SDS011;56303;52.160;-0.428;2023-02-22T02:20:53;48.23;;;38.73;;
20743;SDS011;56303;52.160;-0.428;2023-02-22T02:40:39;54.17;;;42.40;;
20743;SDS011;56303;52.160;-0.428;2023-02-22T02:43:25;65.27;;;47.40;;
20743;SDS011;56303;52.160;-0.428;2023-02-22T02:46:10;54.60;;;43.03;;
20743;SDS011;56303;52.160;-0.428;2023-02-22T02:48:48;56.23;;;43.93;;
20743;SDS011;56303;52.160;-0.428;2023-02-22T02:51:20;59.30;;;47.23;;
20743;SDS011;56303;52.160;-0.428;2023-02-22T02:53:49;58.93;;;47.60;;
20743;SDS011;56303;52.160;-0.428;2023-02-22T02:56:17;61.13;;;46.57;;
20743;SDS011;56303;52.160;-0.428;2023-02-22T02:58:46;61.90;;;48.43;;
20743;SDS011;56303;52.160;-0.428;2023-02-22T03:04:27;57.60;;;46.07;;
20743;SDS011;56303;52.160;-0.428;2023-02-22T03:09:40;63.33;;;48.30;;
20743;SDS011;56303;52.160;-0.428;2023-02-22T03:15:32;61.17;;;46.93;;
20743;SDS011;56303;52.160;-0.428;2023-02-22T03:18:27;77.43;;;53.70;;
20743;SDS011;56303;52.160;-0.428;2023-02-22T03:23:45;59.33;;;45.50;;
20743;SDS011;56303;52.160;-0.428;2023-02-22T03:26:41;68.50;;;50.33;;
20743;SDS011;56303;52.160;-0.428;2023-02-22T03:29:12;63.20;;;49.53;;
20743;SDS011;56303;52.160;-0.428;2023-02-22T03:31:50;62.97;;;47.80;;
20743;SDS011;56303;52.160;-0.428;2023-02-22T03:34:25;64.53;;;48.17;;
20743;SDS011;56303;52.160;-0.428;2023-02-22T03:36:58;65.80;;;46.77;;
20743;SDS011;56303;52.160;-0.428;2023-02-22T03:39:28;66.47;;;48.57;;
20743;SDS011;56303;52.160;-0.428;2023-02-22T03:41:59;62.50;;;47.40;;
20743;SDS011;56303;52.160;-0.428;2023-02-22T03:44:34;65.80;;;49.27;;
20743;SDS011;56303;52.160;-0.428;2023-02-22T03:47:05;60.90;;;46.97;;
20743;SDS011;56303;52.160;-0.428;2023-02-22T03:49:36;60.40;;;45.40;;
20743;SDS011;56303;52.160;-0.428;2023-02-22T03:52:06;61.40;;;46.73;;
20743;SDS011;56303;52.160;-0.428;2023-02-22T03:54:34;59.80;;;47.23;;
20743;SDS011;56303;52.160;-0.428;2023-02-22T03:57:09;60.80;;;46.77;;
20743;SDS011;56303;52.160;-0.428;2023-02-22T03:59:49;61.60;;;47.77;;
20743;SDS011;56303;52.160;-0.428;2023-02-22T04:02:17;71.03;;;52.13;;
20743;SDS011;56303;52.160;-0.428;2023-02-22T04:04:45;58.77;;;46.27;;
20743;SDS011;56303;52.160;-0.428;2023-02-22T04:07:12;57.37;;;44.10;;
20743;SDS011;56303;52.160;-0.428;2023-02-22T04:09:40;59.50;;;45.03;;
20743;SDS011;56303;52.160;-0.428;2023-02-22T04:12:07;58.70;;;44.17;;
20743;SDS011;56303;52.160;-0.428;2023-02-22T04:14:35;58.70;;;45.53;;
20743;SDS011;56303;52.160;-0.428;2023-02-22T04:17:01;59.20;;;43.30;;
20743;SDS011;56303;52.160;-0.428;2023-02-22T04:19:28;57.10;;;44.37;;
20743;SDS011;56303;52.160;-0.428;2023-02-22T04:21:56;59.20;;;44.50;;
20743;SDS011;56303;52.160;-0.428;2023-02-22T04:24:25;58.37;;;43.07;;
20743;SDS011;56303;52.160;-0.428;2023-02-22T04:26:51;50.43;;;40.57;;
20743;SDS011;56303;52.160;-0.428;2023-02-22T04:29:20;56.13;;;43.60;;
20743;SDS011;56303;52.160;-0.428;2023-02-22T04:31:50;59.50;;;45.67;;
20743;SDS011;56303;52.160;-0.428;2023-02-22T04:34:17;55.27;;;42.53;;
20743;SDS011;56303;52.160;-0.428;2023-02-22T04:36:46;61.20;;;42.47;;
20743;SDS011;56303;52.160;-0.428;2023-02-22T04:39:14;51.40;;;41.47;;
20743;SDS011;56303;52.160;-0.428;2023-02-22T04:41:41;54.23;;;42.00;;
20743;SDS011;56303;52.160;-0.428;2023-02-22T04:44:10;48.67;;;39.37;;
20743;SDS011;56303;52.160;-0.428;2023-02-22T04:46:37;45.13;;;36.30;;
20743;SDS011;56303;52.160;-0.428;2023-02-22T04:49:04;53.83;;;39.60;;
20743;SDS011;56303;52.160;-0.428;2023-02-22T04:51:30;48.37;;;37.07;;
20743;SDS011;56303;52.160;-0.428;2023-02-22T04:53:58;47.10;;;37.37;;
20743;SDS011;56303;52.160;-0.428;2023-02-22T04:56:25;47.03;;;37.67;;
20743;SDS011;56303;52.160;-0.428;2023-02-22T04:58:52;50.80;;;39.10;;
20743;SDS011;56303;52.160;-0.428;2023-02-22T05:01:18;47.67;;;36.23;;
20743;SDS011;56303;52.160;-0.428;2023-02-22T05:03:47;50.50;;;37.43;;
20743;SDS011;56303;52.160;-0.428;2023-02-22T05:06:15;50.63;;;38.90;;
20743;SDS011;56303;52.160;-0.428;2023-02-22T05:08:45;45.33;;;35.60;;
20743;SDS011;56303;52.160;-0.428;2023-02-22T05:11:12;52.13;;;40.83;;
20743;SDS011;56303;52.160;-0.428;2023-02-22T05:13:38;45.20;;;36.03;;
20743;SDS011;56303;52.160;-0.428;2023-02-22T05:16:05;47.60;;;36.33;;
20743;SDS011;56303;52.160;-0.428;2023-02-22T05:18:32;45.47;;;35.27;;
20743;SDS011;56303;52.160;-0.428;2023-02-22T05:20:59;46.33;;;36.77;;
20743;SDS011;56303;52.160;-0.428;2023-02-22T05:23:26;46.57;;;35.67;;
20743;SDS011;56303;52.160;-0.428;2023-02-22T05:25:52;42.30;;;32.20;;
20743;SDS011;56303;52.160;-0.428;2023-02-22T05:28:19;44.93;;;34.60;;
20743;SDS011;56303;52.160;-0.428;2023-02-22T05:30:46;46.83;;;35.60;;
20743;SDS011;56303;52.160;-0.428;2023-02-22T05:33:13;39.90;;;30.73;;
20743;SDS011;56303;52.160;-0.428;2023-02-22T05:35:40;37.13;;;29.33;;
20743;SDS011;56303;52.160;-0.428;2023-02-22T05:38:07;40.33;;;31.63;;
20743;SDS011;56303;52.160;-0.428;2023-02-22T05:40:35;36.13;;;28.83;;
20743;SDS011;56303;52.160;-0.428;2023-02-22T05:43:02;40.67;;;31.07;;
20743;SDS011;56303;52.160;-0.428;2023-02-22T05:45:29;40.93;;;31.50;;
20743;SDS011;56303;52.160;-0.428;2023-02-22T05:47:56;37.33;;;29.30;;
20743;SDS011;56303;52.160;-0.428;2023-02-22T05:50:26;42.57;;;31.83;;
20743;SDS011;56303;52.160;-0.428;2023-02-22T05:52:54;35.93;;;29.57;;
20743;SDS011;56303;52.160;-0.428;2023-02-22T05:55:21;36.83;;;28.37;;
20743;SDS011;56303;52.160;-0.428;2023-02-22T05:57:49;35.50;;;27.80;;
20743;SDS011;56303;52.160;-0.428;2023-02-22T06:00:21;34.40;;;28.93;;
20743;SDS011;56303;52.160;-0.428;2023-02-22T06:02:57;35.27;;;26.93;;
20743;SDS011;56303;52.160;-0.428;2023-02-22T06:05:25;33.80;;;26.57;;
20743;SDS011;56303;52.160;-0.428;2023-02-22T06:07:52;34.67;;;26.33;;
20743;SDS011;56303;52.160;-0.428;2023-02-22T06:10:20;34.10;;;25.23;;
20743;SDS011;56303;52.160;-0.428;2023-02-22T06:12:49;33.57;;;26.27;;
20743;SDS011;56303;52.160;-0.428;2023-02-22T06:15:17;29.87;;;24.13;;
20743;SDS011;56303;52.160;-0.428;2023-02-22T06:17:45;33.13;;;26.07;;
20743;SDS011;56303;52.160;-0.428;2023-02-22T06:20:13;33.27;;;26.23;;
20743;SDS011;56303;52.160;-0.428;2023-02-22T06:22:45;29.87;;;23.63;;
20743;SDS011;56303;52.160;-0.428;2023-02-22T06:25:18;34.50;;;26.00;;
20743;SDS011;56303;52.160;-0.428;2023-02-22T06:27:47;28.83;;;23.40;;
20743;SDS011;56303;52.160;-0.428;2023-02-22T06:30:14;26.23;;;22.37;;
20743;SDS011;56303;52.160;-0.428;2023-02-22T06:32:46;28.47;;;22.03;;
20743;SDS011;56303;52.160;-0.428;2023-02-22T06:35:15;29.70;;;22.13;;
20743;SDS011;56303;52.160;-0.428;2023-02-22T06:37:43;26.63;;;20.50;;
20743;SDS011;56303;52.160;-0.428;2023-02-22T06:40:10;29.67;;;22.37;;
20743;SDS011;56303;52.160;-0.428;2023-02-22T06:42:38;26.67;;;21.73;;
20743;SDS011;56303;52.160;-0.428;2023-02-22T06:45:05;27.90;;;21.80;;
20743;SDS011;56303;52.160;-0.428;2023-02-22T06:47:36;29.47;;;22.17;;
20743;SDS011;56303;52.160;-0.428;2023-02-22T06:50:06;28.83;;;21.47;;
20743;SDS011;56303;52.160;-0.428;2023-02-22T06:52:34;30.93;;;21.70;;
20743;SDS011;56303;52.160;-0.428;2023-02-22T06:55:02;30.07;;;21.73;;
20743;SDS011;56303;52.160;-0.428;2023-02-22T06:57:29;27.03;;;20.50;;
20743;SDS011;56303;52.160;-0.428;2023-02-22T06:59:56;33.03;;;23.17;;
20743;SDS011;56303;52.160;-0.428;2023-02-22T07:02:23;25.27;;;19.63;;
20743;SDS011;56303;52.160;-0.428;2023-02-22T07:04:50;36.20;;;23.77;;
20743;SDS011;56303;52.160;-0.428;2023-02-22T07:07:17;25.83;;;20.13;;
20743;SDS011;56303;52.160;-0.428;2023-02-22T07:09:47;26.33;;;21.03;;
20743;SDS011;56303;52.160;-0.428;2023-02-22T07:12:14;29.80;;;21.90;;
20743;SDS011;56303;52.160;-0.428;2023-02-22T07:14:41;30.70;;;20.97;;
20743;SDS011;56303;52.160;-0.428;2023-02-22T07:17:08;27.13;;;20.87;;
20743;SDS011;56303;52.160;-0.428;2023-02-22T07:19:36;29.03;;;21.43;;
20743;SDS011;56303;52.160;-0.428;2023-02-22T07:22:03;27.80;;;20.77;;
20743;SDS011;56303;52.160;-0.428;2023-02-22T07:24:31;29.00;;;21.87;;
20743;SDS011;56303;52.160;-0.428;2023-02-22T07:27:00;28.93;;;20.60;;
20743;SDS011;56303;52.160;-0.428;2023-02-22T07:29:27;26.27;;;20.20;;
20743;SDS011;56303;52.160;-0.428;2023-02-22T07:31:55;25.47;;;19.50;;
20743;SDS011;56303;52.160;-0.428;2023-02-22T07:34:23;26.03;;;19.17;;
20743;SDS011;56303;52.160;-0.428;2023-02-22T07:36:50;28.37;;;20.00;;
20743;SDS011;56303;52.160;-0.428;2023-02-22T07:39:16;25.93;;;19.47;;
20743;SDS011;56303;52.160;-0.428;2023-02-22T07:41:45;27.20;;;20.30;;
20743;SDS011;56303;52.160;-0.428;2023-02-22T07:44:13;23.90;;;17.90;;
20743;SDS011;56303;52.160;-0.428;2023-02-22T07:46:40;32.43;;;21.67;;
20743;SDS011;56303;52.160;-0.428;2023-02-22T07:49:06;24.73;;;19.23;;
20743;SDS011;56303;52.160;-0.428;2023-02-22T07:51:33;27.33;;;20.23;;
20743;SDS011;56303;52.160;-0.428;2023-02-22T07:54:02;29.57;;;21.70;;
20743;SDS011;56303;52.160;-0.428;2023-02-22T07:56:29;29.97;;;20.27;;
20743;SDS011;56303;52.160;-0.428;2023-02-22T07:58:56;32.77;;;23.27;;
20743;SDS011;56303;52.160;-0.428;2023-02-22T08:01:23;30.33;;;20.80;;
20743;SDS011;56303;52.160;-0.428;2023-02-22T08:03:50;31.60;;;23.03;;
20743;SDS011;56303;52.160;-0.428;2023-02-22T08:06:19;29.27;;;20.33;;
20743;SDS011;56303;52.160;-0.428;2023-02-22T08:08:51;30.83;;;21.90;;
20743;SDS011;56303;52.160;-0.428;2023-02-22T08:11:17;31.80;;;21.70;;
20743;SDS011;56303;52.160;-0.428;2023-02-22T08:13:58;23.10;;;17.43;;
20743;SDS011;56303;52.160;-0.428;2023-02-22T08:16:29;28.17;;;20.40;;
20743;SDS011;56303;52.160;-0.428;2023-02-22T08:18:56;29.17;;;21.97;;
20743;SDS011;56303;52.160;-0.428;2023-02-22T08:21:23;29.80;;;20.37;;
20743;SDS011;56303;52.160;-0.428;2023-02-22T08:23:50;28.40;;;21.00;;
20743;SDS011;56303;52.160;-0.428;2023-02-22T08:26:19;27.20;;;20.10;;
20743;SDS011;56303;52.160;-0.428;2023-02-22T08:28:47;28.20;;;19.93;;
20743;SDS011;56303;52.160;-0.428;2023-02-22T08:31:14;24.57;;;19.60;;
20743;SDS011;56303;52.160;-0.428;2023-02-22T08:33:41;26.83;;;19.73;;
20743;SDS011;56303;52.160;-0.428;2023-02-22T08:36:09;27.17;;;20.80;;
20743;SDS011;56303;52.160;-0.428;2023-02-22T08:38:36;25.23;;;19.87;;
20743;SDS011;56303;52.160;-0.428;2023-02-22T08:41:03;26.20;;;20.77;;
20743;SDS011;56303;52.160;-0.428;2023-02-22T08:43:30;25.10;;;20.07;;
20743;SDS011;56303;52.160;-0.428;2023-02-22T08:45:57;27.93;;;19.50;;
20743;SDS011;56303;52.160;-0.428;2023-02-22T08:48:24;25.37;;;18.83;;
20743;SDS011;56303;52.160;-0.428;2023-02-22T08:50:51;26.73;;;20.13;;
20743;SDS011;56303;52.160;-0.428;2023-02-22T08:53:18;26.73;;;20.97;;
20743;SDS011;56303;52.160;-0.428;2023-02-22T08:55:45;24.40;;;19.67;;
20743;SDS011;56303;52.160;-0.428;2023-02-22T08:58:12;27.43;;;21.30;;
20743;SDS011;56303;52.160;-0.428;2023-02-22T09:00:40;26.53;;;21.47;;
20743;SDS011;56303;52.160;-0.428;2023-02-22T09:03:11;24.00;;;20.40;;
20743;SDS011;56303;52.160;-0.428;2023-02-22T09:05:39;20.53;;;17.50;;
20743;SDS011;56303;52.160;-0.428;2023-02-22T09:08:08;25.10;;;19.93;;
20743;SDS011;56303;52.160;-0.428;2023-02-22T09:10:35;22.67;;;18.30;;
20743;SDS011;56303;52.160;-0.428;2023-02-22T09:13:02;27.40;;;20.13;;
20743;SDS011;56303;52.160;-0.428;2023-02-22T09:15:29;26.30;;;20.33;;
20743;SDS011;56303;52.160;-0.428;2023-02-22T09:17:57;22.50;;;18.77;;
20743;SDS011;56303;52.160;-0.428;2023-02-22T09:20:25;23.87;;;17.70;;
20743;SDS011;56303;52.160;-0.428;2023-02-22T09:22:52;26.37;;;19.43;;
20743;SDS011;56303;52.160;-0.428;2023-02-22T09:25:20;26.03;;;20.03;;
20743;SDS011;56303;52.160;-0.428;2023-02-22T09:27:51;23.20;;;17.80;;
20743;SDS011;56303;52.160;-0.428;2023-02-22T09:30:23;27.53;;;19.53;;
20743;SDS011;56303;52.160;-0.428;2023-02-22T09:33:01;25.00;;;19.20;;
20743;SDS011;56303;52.160;-0.428;2023-02-22T09:35:29;26.63;;;19.93;;
20743;SDS011;56303;52.160;-0.428;2023-02-22T09:38:02;25.80;;;20.80;;
20743;SDS011;56303;52.160;-0.428;2023-02-22T09:40:31;23.83;;;20.57;;
20743;SDS011;56303;52.160;-0.428;2023-02-22T09:43:15;25.37;;;19.80;;
20743;SDS011;56303;52.160;-0.428;2023-02-22T09:49:08;24.10;;;18.67;;
20743;SDS011;56303;52.160;-0.428;2023-02-22T09:51:41;24.23;;;18.53;;
20743;SDS011;56303;52.160;-0.428;2023-02-22T09:54:55;26.47;;;19.27;;
20743;SDS011;56303;52.160;-0.428;2023-02-22T09:57:27;24.50;;;18.77;;
20743;SDS011;56303;52.160;-0.428;2023-02-22T10:00:02;26.00;;;19.83;;
20743;SDS011;56303;52.160;-0.428;2023-02-22T10:02:50;25.63;;;20.87;;
20743;SDS011;56303;52.160;-0.428;2023-02-22T10:05:35;26.67;;;20.40;;
20743;SDS011;56303;52.160;-0.428;2023-02-22T10:08:09;24.03;;;19.63;;
20743;SDS011;56303;52.160;-0.428;2023-02-22T10:10:40;25.47;;;20.43;;
20743;SDS011;56303;52.160;-0.428;2023-02-22T10:25:04;23.63;;;18.37;;
20743;SDS011;56303;52.160;-0.428;2023-02-22T10:32:56;22.90;;;17.10;;
20743;SDS011;56303;52.160;-0.428;2023-02-22T10:35:43;22.07;;;17.57;;
20743;SDS011;56303;52.160;-0.428;2023-02-22T10:38:16;23.23;;;18.37;;
20743;SDS011;56303;52.160;-0.428;2023-02-22T10:40:48;21.93;;;17.43;;
20743;SDS011;56303;52.160;-0.428;2023-02-22T10:43:20;22.13;;;19.27;;
20743;SDS011;56303;52.160;-0.428;2023-02-22T10:46:08;22.33;;;19.20;;
20743;SDS011;56303;52.160;-0.428;2023-02-22T10:48:39;23.27;;;18.50;;
20743;SDS011;56303;52.160;-0.428;2023-02-22T10:51:10;25.03;;;18.37;;
20743;SDS011;56303;52.160;-0.428;2023-02-22T10:53:38;23.00;;;18.33;;
20743;SDS011;56303;52.160;-0.428;2023-02-22T10:58:45;22.40;;;17.93;;
20743;SDS011;56303;52.160;-0.428;2023-02-22T11:01:20;22.13;;;17.90;;
20743;SDS011;56303;52.160;-0.428;2023-02-22T11:06:42;23.30;;;17.40;;
20743;SDS011;56303;52.160;-0.428;2023-02-22T11:09:15;23.83;;;18.90;;
20743;SDS011;56303;52.160;-0.428;2023-02-22T11:11:50;24.57;;;17.53;;
20743;SDS011;56303;52.160;-0.428;2023-02-22T11:14:34;22.10;;;17.60;;
20743;SDS011;56303;52.160;-0.428;2023-02-22T11:17:04;24.93;;;17.20;;
20743;SDS011;56303;52.160;-0.428;2023-02-22T11:19:33;24.60;;;19.23;;
20743;SDS011;56303;52.160;-0.428;2023-02-22T11:22:17;22.80;;;17.50;;
20743;SDS011;56303;52.160;-0.428;2023-02-22T11:24:48;24.60;;;18.37;;
20743;SDS011;56303;52.160;-0.428;2023-02-22T11:27:39;24.03;;;19.10;;
20743;SDS011;56303;52.160;-0.428;2023-02-22T11:32:49;21.60;;;16.73;;
20743;SDS011;56303;52.160;-0.428;2023-02-22T11:38:19;24.10;;;18.00;;
20743;SDS011;56303;52.160;-0.428;2023-02-22T11:43:48;21.67;;;17.67;;
20743;SDS011;56303;52.160;-0.428;2023-02-22T11:46:24;23.33;;;17.60;;
20743;SDS011;56303;52.160;-0.428;2023-02-22T11:59:30;24.37;;;19.00;;
20743;SDS011;56303;52.160;-0.428;2023-02-22T12:22:09;22.20;;;15.63;;
20743;SDS011;56303;52.160;-0.428;2023-02-22T12:27:52;18.93;;;15.77;;
20743;SDS011;56303;52.160;-0.428;2023-02-22T12:30:56;19.57;;;15.47;;
20743;SDS011;56303;52.160;-0.428;2023-02-22T12:33:46;17.47;;;14.80;;
20743;SDS011;56303;52.160;-0.428;2023-02-22T12:36:30;20.33;;;16.67;;
20743;SDS011;56303;52.160;-0.428;2023-02-22T12:39:04;18.43;;;15.43;;
20743;SDS011;56303;52.160;-0.428;2023-02-22T12:41:46;18.47;;;13.93;;
20743;SDS011;56303;52.160;-0.428;2023-02-22T12:44:16;17.37;;;14.00;;
20743;SDS011;56303;52.160;-0.428;2023-02-22T12:46:51;16.00;;;13.90;;
20743;SDS011;56303;52.160;-0.428;2023-02-22T12:54:49;14.30;;;12.80;;
20743;SDS011;56303;52.160;-0.428;2023-02-22T12:57:45;14.37;;;12.83;;
20743;SDS011;56303;52.160;-0.428;2023-02-22T13:00:20;15.13;;;11.70;;
20743;SDS011;56303;52.160;-0.428;2023-02-22T13:05:23;14.50;;;11.97;;
20743;SDS011;56303;52.160;-0.428;2023-02-22T13:08:01;16.83;;;12.37;;
20743;SDS011;56303;52.160;-0.428;2023-02-22T13:25:13;10.27;;;7.33;;
20743;SDS011;56303;52.160;-0.428;2023-02-22T13:29:58;9.00;;;7.23;;
20743;SDS011;56303;52.160;-0.428;2023-02-22T13:52:33;4.83;;;3.57;;
20743;SDS011;56303;52.160;-0.428;2023-02-22T13:55:14;5.77;;;3.93;;
20743;SDS011;56303;52.160;-0.428;2023-02-22T13:58:03;4.20;;;3.23;;
20743;SDS011;56303;52.160;-0.428;2023-02-22T14:06:53;4.17;;;2.50;;
20743;SDS011;56303;52.160;-0.428;2023-02-22T14:09:07;4.13;;;2.90;;
20743;SDS011;56303;52.160;-0.428;2023-02-22T14:11:40;5.43;;;3.20;;
20743;SDS011;56303;52.160;-0.428;2023-02-22T14:14:08;5.10;;;3.30;;
20743;SDS011;56303;52.160;-0.428;2023-02-22T14:16:36;3.93;;;2.83;;
20743;SDS011;56303;52.160;-0.428;2023-02-22T14:19:14;3.90;;;2.40;;
20743;SDS011;56303;52.160;-0.428;2023-02-22T14:22:01;3.00;;;2.40;;
20743;SDS011;56303;52.160;-0.428;2023-02-22T14:24:39;4.97;;;2.53;;
20743;SDS011;56303;52.160;-0.428;2023-02-22T14:27:13;4.43;;;2.83;;
20743;SDS011;56303;52.160;-0.428;2023-02-22T14:29:55;3.17;;;2.23;;
20743;SDS011;56303;52.160;-0.428;2023-02-22T14:32:29;5.43;;;3.13;;
20743;SDS011;56303;52.160;-0.428;2023-02-22T14:35:05;3.33;;;2.57;;
20743;SDS011;56303;52.160;-0.428;2023-02-22T14:37:52;6.40;;;3.00;;
20743;SDS011;56303;52.160;-0.428;2023-02-22T14:40:29;3.93;;;2.80;;
20743;SDS011;56303;52.160;-0.428;2023-02-22T14:43:02;4.30;;;3.13;;
20743;SDS011;56303;52.160;-0.428;2023-02-22T14:45:30;5.93;;;3.27;;
20743;SDS011;56303;52.160;-0.428;2023-02-22T14:50:56;3.60;;;2.67;;
20743;SDS011;56303;52.160;-0.428;2023-02-22T14:53:51;5.53;;;2.87;;
20743;SDS011;56303;52.160;-0.428;2023-02-22T14:56:29;3.10;;;2.80;;
20743;SDS011;56303;52.160;-0.428;2023-02-22T15:01:33;4.17;;;2.50;;
20743;SDS011;56303;52.160;-0.428;2023-02-22T15:04:28;7.27;;;4.83;;
20743;SDS011;56303;52.160;-0.428;2023-02-22T15:06:57;6.07;;;4.20;;
20743;SDS011;56303;52.160;-0.428;2023-02-22T15:09:29;8.30;;;5.97;;
20743;SDS011;56303;52.160;-0.428;2023-02-22T15:14:30;4.87;;;3.87;;
20743;SDS011;56303;52.160;-0.428;2023-02-22T15:17:22;6.63;;;3.97;;
20743;SDS011;56303;52.160;-0.428;2023-02-22T15:19:50;5.60;;;4.10;;
20743;SDS011;56303;52.160;-0.428;2023-02-22T15:22:22;10.50;;;7.40;;
20743;SDS011;56303;52.160;-0.428;2023-02-22T15:24:58;5.90;;;4.33;;
20743;SDS011;56303;52.160;-0.428;2023-02-22T15:27:28;5.23;;;3.50;;
20743;SDS011;56303;52.160;-0.428;2023-02-22T15:29:56;5.00;;;3.50;;
20743;SDS011;56303;52.160;-0.428;2023-02-22T15:35:17;10.10;;;7.50;;
20743;SDS011;56303;52.160;-0.428;2023-02-22T15:38:00;6.90;;;3.17;;
20743;SDS011;56303;52.160;-0.428;2023-02-22T15:40:36;6.23;;;2.77;;
20743;SDS011;56303;52.160;-0.428;2023-02-22T15:43:15;3.30;;;2.83;;
20743;SDS011;56303;52.160;-0.428;2023-02-22T15:45:44;4.50;;;3.10;;
20743;SDS011;56303;52.160;-0.428;2023-02-22T15:48:11;5.83;;;3.40;;
20743;SDS011;56303;52.160;-0.428;2023-02-22T15:50:56;6.50;;;3.10;;
20743;SDS011;56303;52.160;-0.428;2023-02-22T15:53:36;4.27;;;3.17;;
20743;SDS011;56303;52.160;-0.428;2023-02-22T15:56:18;3.73;;;3.23;;
20743;SDS011;56303;52.160;-0.428;2023-02-22T15:58:51;5.97;;;4.43;;
20743;SDS011;56303;52.160;-0.428;2023-02-22T16:01:25;8.07;;;4.97;;
20743;SDS011;56303;52.160;-0.428;2023-02-22T16:03:56;5.23;;;4.00;;
20743;SDS011;56303;52.160;-0.428;2023-02-22T16:06:34;5.43;;;3.87;;
20743;SDS011;56303;52.160;-0.428;2023-02-22T16:09:07;5.67;;;3.33;;
20743;SDS011;56303;52.160;-0.428;2023-02-22T16:11:40;3.83;;;3.00;;
20743;SDS011;56303;52.160;-0.428;2023-02-22T16:22:39;7.90;;;4.53;;
20743;SDS011;56303;52.160;-0.428;2023-02-22T16:32:54;4.67;;;2.67;;
20743;SDS011;56303;52.160;-0.428;2023-02-22T16:35:25;7.43;;;2.63;;
20743;SDS011;56303;52.160;-0.428;2023-02-22T16:38:01;6.07;;;2.57;;
20743;SDS011;56303;52.160;-0.428;2023-02-22T16:40:33;7.73;;;3.13;;
20743;SDS011;56303;52.160;-0.428;2023-02-22T16:43:06;4.47;;;2.63;;
20743;SDS011;56303;52.160;-0.428;2023-02-22T16:45:37;6.00;;;2.77;;
20743;SDS011;56303;52.160;-0.428;2023-02-22T16:48:41;3.43;;;2.27;;
20743;SDS011;56303;52.160;-0.428;2023-02-22T16:51:16;4.93;;;2.60;;
20743;SDS011;56303;52.160;-0.428;2023-02-22T16:53:43;4.37;;;2.67;;
20743;SDS011;56303;52.160;-0.428;2023-02-22T16:56:10;3.90;;;2.40;;
20743;SDS011;56303;52.160;-0.428;2023-02-22T16:58:42;4.77;;;2.60;;
20743;SDS011;56303;52.160;-0.428;2023-02-22T17:01:10;3.80;;;2.30;;
20743;SDS011;56303;52.160;-0.428;2023-02-22T17:03:38;4.57;;;3.10;;
20743;SDS011;56303;52.160;-0.428;2023-02-22T17:06:05;6.37;;;3.40;;
20743;SDS011;56303;52.160;-0.428;2023-02-22T17:08:32;4.83;;;3.10;;
20743;SDS011;56303;52.160;-0.428;2023-02-22T17:10:59;4.83;;;3.17;;
20743;SDS011;56303;52.160;-0.428;2023-02-22T17:13:26;6.30;;;3.20;;
20743;SDS011;56303;52.160;-0.428;2023-02-22T17:15:55;8.13;;;3.30;;
20743;SDS011;56303;52.160;-0.428;2023-02-22T17:18:23;3.73;;;2.80;;
20743;SDS011;56303;52.160;-0.428;2023-02-22T17:20:53;8.13;;;2.70;;
20743;SDS011;56303;52.160;-0.428;2023-02-22T17:23:22;6.40;;;2.80;;
20743;SDS011;56303;52.160;-0.428;2023-02-22T17:25:50;3.73;;;2.33;;
20743;SDS011;56303;52.160;-0.428;2023-02-22T17:28:24;4.20;;;2.67;;
20743;SDS011;56303;52.160;-0.428;2023-02-22T17:30:52;4.37;;;2.40;;
20743;SDS011;56303;52.160;-0.428;2023-02-22T17:33:21;4.47;;;2.50;;
20743;SDS011;56303;52.160;-0.428;2023-02-22T17:35:53;5.23;;;2.70;;